sensor_id;sensor_type;location;lat;lon;timestamp;temperature;humidity
68801;SHT31;55784;50.734;7.086;2022-10-20T00:07:17;13.39;86.47
68801;SHT31;55784;50.734;7.086;2022-10-20T00:13:03;13.29;86.74
68801;SHT31;55784;50.734;7.086;2022-10-20T00:19:54;13.22;87.13
68801;SHT31;55784;50.734;7.086;2022-10-20T00:26:20;13.15;87.34
68801;SHT31;55784;50.734;7.086;2022-10-20T00:28:54;13.11;87.59
68801;SHT31;55784;50.734;7.086;2022-10-20T00:31:46;13.08;87.55
68801;SHT31;55784;50.734;7.086;2022-10-20T00:38:01;13.12;86.84
68801;SHT31;55784;50.734;7.086;2022-10-20T00:41:05;13.12;86.57
68801;SHT31;55784;50.734;7.086;2022-10-20T00:46:58;13.01;86.48
68801;SHT31;55784;50.734;7.086;2022-10-20T00:49:53;12.95;86.64
68801;SHT31;55784;50.734;7.086;2022-10-20T00:56:31;12.81;86.69
68801;SHT31;55784;50.734;7.086;2022-10-20T00:59:27;12.81;86.60
68801;SHT31;55784;50.734;7.086;2022-10-20T01:02:36;12.80;86.38
68801;SHT31;55784;50.734;7.086;2022-10-20T01:05:10;12.80;86.26
68801;SHT31;55784;50.734;7.086;2022-10-20T01:08:15;12.79;86.21
68801;SHT31;55784;50.734;7.086;2022-10-20T01:36:09;12.36;87.01
68801;SHT31;55784;50.734;7.086;2022-10-20T01:42:36;12.16;87.62
68801;SHT31;55784;50.734;7.086;2022-10-20T01:45:24;12.06;87.94
68801;SHT31;55784;50.734;7.086;2022-10-20T01:48:13;12.02;88.10
68801;SHT31;55784;50.734;7.086;2022-10-20T01:51:12;11.95;88.04
68801;SHT31;55784;50.734;7.086;2022-10-20T01:54:46;11.89;88.18
68801;SHT31;55784;50.734;7.086;2022-10-20T02:01:28;11.81;88.38
68801;SHT31;55784;50.734;7.086;2022-10-20T02:04:27;11.74;88.58
68801;SHT31;55784;50.734;7.086;2022-10-20T02:07:50;11.74;88.81
68801;SHT31;55784;50.734;7.086;2022-10-20T02:10:53;11.72;88.76
68801;SHT31;55784;50.734;7.086;2022-10-20T02:20:48;11.58;89.17
68801;SHT31;55784;50.734;7.086;2022-10-20T02:23:52;11.51;89.17
68801;SHT31;55784;50.734;7.086;2022-10-20T02:27:25;11.51;89.25
68801;SHT31;55784;50.734;7.086;2022-10-20T02:37:04;11.38;89.65
68801;SHT31;55784;50.734;7.086;2022-10-20T02:40:31;11.28;89.87
68801;SHT31;55784;50.734;7.086;2022-10-20T02:43:31;11.31;89.90
68801;SHT31;55784;50.734;7.086;2022-10-20T02:49:16;11.20;90.13
68801;SHT31;55784;50.734;7.086;2022-10-20T02:55:43;11.21;90.14
68801;SHT31;55784;50.734;7.086;2022-10-20T02:58:37;11.20;90.22
68801;SHT31;55784;50.734;7.086;2022-10-20T03:02:14;11.17;90.32
68801;SHT31;55784;50.734;7.086;2022-10-20T03:05:12;11.19;90.22
68801;SHT31;55784;50.734;7.086;2022-10-20T03:11:14;11.20;90.15
68801;SHT31;55784;50.734;7.086;2022-10-20T03:19:55;11.07;90.49
68801;SHT31;55784;50.734;7.086;2022-10-20T03:26:35;11.04;90.78
68801;SHT31;55784;50.734;7.086;2022-10-20T03:29:33;11.06;90.74
68801;SHT31;55784;50.734;7.086;2022-10-20T03:35:48;11.07;90.68
68801;SHT31;55784;50.734;7.086;2022-10-20T03:38:44;11.06;90.71
68801;SHT31;55784;50.734;7.086;2022-10-20T03:41:28;11.04;90.83
68801;SHT31;55784;50.734;7.086;2022-10-20T03:47:26;11.09;90.58
68801;SHT31;55784;50.734;7.086;2022-10-20T03:50:00;11.11;90.59
68801;SHT31;55784;50.734;7.086;2022-10-20T03:52:34;11.16;90.20
68801;SHT31;55784;50.734;7.086;2022-10-20T03:55:07;11.21;89.97
68801;SHT31;55784;50.734;7.086;2022-10-20T03:57:39;11.16;89.93
68801;SHT31;55784;50.734;7.086;2022-10-20T04:00:12;11.16;89.98
68801;SHT31;55784;50.734;7.086;2022-10-20T04:02:53;11.10;90.14
68801;SHT31;55784;50.734;7.086;2022-10-20T04:05:58;11.11;90.13
68801;SHT31;55784;50.734;7.086;2022-10-20T04:08:48;11.07;90.24
68801;SHT31;55784;50.734;7.086;2022-10-20T04:11:58;11.11;90.09
68801;SHT31;55784;50.734;7.086;2022-10-20T04:15:07;11.11;89.79
68801;SHT31;55784;50.734;7.086;2022-10-20T04:17:56;11.10;89.83
68801;SHT31;55784;50.734;7.086;2022-10-20T04:24:28;11.03;90.05
68801;SHT31;55784;50.734;7.086;2022-10-20T04:27:38;11.01;90.13
68801;SHT31;55784;50.734;7.086;2022-10-20T04:30:47;11.06;89.83
68801;SHT31;55784;50.734;7.086;2022-10-20T04:36:49;11.04;89.84
68801;SHT31;55784;50.734;7.086;2022-10-20T04:39:52;11.07;89.76
68801;SHT31;55784;50.734;7.086;2022-10-20T04:46:10;11.11;89.40
68801;SHT31;55784;50.734;7.086;2022-10-20T04:55:33;11.19;88.62
68801;SHT31;55784;50.734;7.086;2022-10-20T05:01:20;11.19;88.53
68801;SHT31;55784;50.734;7.086;2022-10-20T05:03:46;11.17;88.51
68801;SHT31;55784;50.734;7.086;2022-10-20T05:06:18;11.16;88.56
68801;SHT31;55784;50.734;7.086;2022-10-20T05:08:47;11.20;88.27
68801;SHT31;55784;50.734;7.086;2022-10-20T05:11:13;11.23;88.19
68801;SHT31;55784;50.734;7.086;2022-10-20T05:13:39;11.21;88.00
68801;SHT31;55784;50.734;7.086;2022-10-20T05:16:05;11.20;88.05
68801;SHT31;55784;50.734;7.086;2022-10-20T05:18:32;11.16;88.08
68801;SHT31;55784;50.734;7.086;2022-10-20T05:20:58;11.16;88.04
68801;SHT31;55784;50.734;7.086;2022-10-20T05:23:23;11.19;87.82
68801;SHT31;55784;50.734;7.086;2022-10-20T05:25:49;11.16;88.02
68801;SHT31;55784;50.734;7.086;2022-10-20T05:28:14;11.13;88.04
68801;SHT31;55784;50.734;7.086;2022-10-20T05:30:39;11.16;87.92
68801;SHT31;55784;50.734;7.086;2022-10-20T05:33:05;11.13;87.79
68801;SHT31;55784;50.734;7.086;2022-10-20T05:35:30;11.09;87.98
68801;SHT31;55784;50.734;7.086;2022-10-20T05:37:56;11.10;88.04
68801;SHT31;55784;50.734;7.086;2022-10-20T05:40:22;11.13;87.96
68801;SHT31;55784;50.734;7.086;2022-10-20T05:42:48;11.11;88.03
68801;SHT31;55784;50.734;7.086;2022-10-20T05:45:13;11.16;87.69
68801;SHT31;55784;50.734;7.086;2022-10-20T05:47:39;11.17;87.66
68801;SHT31;55784;50.734;7.086;2022-10-20T05:50:05;11.17;87.71
68801;SHT31;55784;50.734;7.086;2022-10-20T05:52:30;11.14;87.72
68801;SHT31;55784;50.734;7.086;2022-10-20T05:54:55;11.14;87.67
68801;SHT31;55784;50.734;7.086;2022-10-20T05:57:21;11.20;87.57
68801;SHT31;55784;50.734;7.086;2022-10-20T05:59:46;11.17;87.74
68801;SHT31;55784;50.734;7.086;2022-10-20T06:02:12;11.23;87.35
68801;SHT31;55784;50.734;7.086;2022-10-20T06:04:37;11.17;87.48
68801;SHT31;55784;50.734;7.086;2022-10-20T06:07:04;11.21;87.36
68801;SHT31;55784;50.734;7.086;2022-10-20T06:09:30;11.23;87.43
68801;SHT31;55784;50.734;7.086;2022-10-20T06:11:55;11.27;87.07
68801;SHT31;55784;50.734;7.086;2022-10-20T06:14:21;11.27;87.12
68801;SHT31;55784;50.734;7.086;2022-10-20T06:16:51;11.26;87.08
68801;SHT31;55784;50.734;7.086;2022-10-20T06:19:16;11.32;86.93
68801;SHT31;55784;50.734;7.086;2022-10-20T06:21:41;11.40;86.69
68801;SHT31;55784;50.734;7.086;2022-10-20T06:24:08;11.47;86.55
68801;SHT31;55784;50.734;7.086;2022-10-20T06:26:35;11.47;86.22
68801;SHT31;55784;50.734;7.086;2022-10-20T06:29:02;11.50;86.24
68801;SHT31;55784;50.734;7.086;2022-10-20T06:31:33;11.52;86.12
68801;SHT31;55784;50.734;7.086;2022-10-20T06:33:59;11.57;85.92
68801;SHT31;55784;50.734;7.086;2022-10-20T06:36:26;11.62;85.94
68801;SHT31;55784;50.734;7.086;2022-10-20T06:38:56;11.65;85.64
68801;SHT31;55784;50.734;7.086;2022-10-20T06:41:22;11.78;85.47
68801;SHT31;55784;50.734;7.086;2022-10-20T06:43:48;11.82;85.11
68801;SHT31;55784;50.734;7.086;2022-10-20T06:46:16;11.86;85.20
68801;SHT31;55784;50.734;7.086;2022-10-20T06:48:42;11.92;85.26
68801;SHT31;55784;50.734;7.086;2022-10-20T06:51:13;11.95;84.86
68801;SHT31;55784;50.734;7.086;2022-10-20T06:53:39;12.01;84.69
68801;SHT31;55784;50.734;7.086;2022-10-20T06:56:07;12.06;84.72
68801;SHT31;55784;50.734;7.086;2022-10-20T06:58:34;12.11;84.54
68801;SHT31;55784;50.734;7.086;2022-10-20T07:01:05;12.13;84.57
68801;SHT31;55784;50.734;7.086;2022-10-20T07:03:32;12.16;84.48
68801;SHT31;55784;50.734;7.086;2022-10-20T07:05:58;12.22;84.13
68801;SHT31;55784;50.734;7.086;2022-10-20T07:08:26;12.23;84.14
68801;SHT31;55784;50.734;7.086;2022-10-20T07:13:24;12.34;84.15
68801;SHT31;55784;50.734;7.086;2022-10-20T07:15:52;12.40;83.82
68801;SHT31;55784;50.734;7.086;2022-10-20T07:18:17;12.43;83.70
68801;SHT31;55784;50.734;7.086;2022-10-20T07:20:43;12.50;83.65
68801;SHT31;55784;50.734;7.086;2022-10-20T07:23:08;12.57;83.42
68801;SHT31;55784;50.734;7.086;2022-10-20T07:25:35;12.63;83.18
68801;SHT31;55784;50.734;7.086;2022-10-20T07:28:00;12.74;82.88
68801;SHT31;55784;50.734;7.086;2022-10-20T07:30:25;12.74;82.75
68801;SHT31;55784;50.734;7.086;2022-10-20T07:32:51;12.79;82.53
68801;SHT31;55784;50.734;7.086;2022-10-20T07:35:16;12.80;82.81
68801;SHT31;55784;50.734;7.086;2022-10-20T07:37:42;12.86;82.56
68801;SHT31;55784;50.734;7.086;2022-10-20T07:40:08;12.94;82.43
68801;SHT31;55784;50.734;7.086;2022-10-20T07:42:34;12.98;82.14
68801;SHT31;55784;50.734;7.086;2022-10-20T07:44:59;13.03;81.88
68801;SHT31;55784;50.734;7.086;2022-10-20T07:47:24;13.11;81.91
68801;SHT31;55784;50.734;7.086;2022-10-20T07:49:50;13.12;81.85
68801;SHT31;55784;50.734;7.086;2022-10-20T07:52:15;13.18;81.86
68801;SHT31;55784;50.734;7.086;2022-10-20T07:54:42;13.29;81.60
68801;SHT31;55784;50.734;7.086;2022-10-20T07:57:08;13.38;81.22
68801;SHT31;55784;50.734;7.086;2022-10-20T07:59:33;13.44;80.80
68801;SHT31;55784;50.734;7.086;2022-10-20T08:01:58;13.39;80.69
68801;SHT31;55784;50.734;7.086;2022-10-20T08:04:24;13.52;80.89
68801;SHT31;55784;50.734;7.086;2022-10-20T08:06:49;13.58;80.57
68801;SHT31;55784;50.734;7.086;2022-10-20T08:09:17;13.65;80.31
68801;SHT31;55784;50.734;7.086;2022-10-20T08:11:43;13.69;80.10
68801;SHT31;55784;50.734;7.086;2022-10-20T08:14:08;13.73;79.80
68801;SHT31;55784;50.734;7.086;2022-10-20T08:16:33;13.83;79.69
68801;SHT31;55784;50.734;7.086;2022-10-20T08:18:59;13.82;79.33
68801;SHT31;55784;50.734;7.086;2022-10-20T08:21:24;13.95;79.28
68801;SHT31;55784;50.734;7.086;2022-10-20T08:23:50;14.00;78.98
68801;SHT31;55784;50.734;7.086;2022-10-20T08:26:20;13.98;78.67
68801;SHT31;55784;50.734;7.086;2022-10-20T08:28:47;13.96;78.65
68801;SHT31;55784;50.734;7.086;2022-10-20T08:31:13;14.05;78.43
68801;SHT31;55784;50.734;7.086;2022-10-20T08:33:38;14.13;78.43
68801;SHT31;55784;50.734;7.086;2022-10-20T08:36:08;14.12;78.27
68801;SHT31;55784;50.734;7.086;2022-10-20T08:38:34;14.05;78.34
68801;SHT31;55784;50.734;7.086;2022-10-20T08:41:00;14.03;78.57
68801;SHT31;55784;50.734;7.086;2022-10-20T08:43:28;13.92;79.07
68801;SHT31;55784;50.734;7.086;2022-10-20T08:45:55;13.85;79.29
68801;SHT31;55784;50.734;7.086;2022-10-20T08:48:23;13.83;79.60
68801;SHT31;55784;50.734;7.086;2022-10-20T08:50:51;13.78;79.64
68801;SHT31;55784;50.734;7.086;2022-10-20T08:53:21;13.79;79.60
68801;SHT31;55784;50.734;7.086;2022-10-20T08:55:48;13.95;79.49
68801;SHT31;55784;50.734;7.086;2022-10-20T08:58:19;13.99;79.26
68801;SHT31;55784;50.734;7.086;2022-10-20T09:00:46;13.96;79.20
68801;SHT31;55784;50.734;7.086;2022-10-20T09:03:15;13.99;79.15
68801;SHT31;55784;50.734;7.086;2022-10-20T09:05:44;13.96;79.25
68801;SHT31;55784;50.734;7.086;2022-10-20T09:08:10;14.00;79.09
68801;SHT31;55784;50.734;7.086;2022-10-20T09:10:37;14.00;79.37
68801;SHT31;55784;50.734;7.086;2022-10-20T09:15:50;13.85;79.64
68801;SHT31;55784;50.734;7.086;2022-10-20T09:18:20;13.89;79.70
68801;SHT31;55784;50.734;7.086;2022-10-20T09:20:52;13.83;79.81
68801;SHT31;55784;50.734;7.086;2022-10-20T09:23:22;13.85;79.97
68801;SHT31;55784;50.734;7.086;2022-10-20T09:25:49;13.83;80.02
68801;SHT31;55784;50.734;7.086;2022-10-20T09:28:23;13.85;80.07
68801;SHT31;55784;50.734;7.086;2022-10-20T09:30:49;13.90;80.13
68801;SHT31;55784;50.734;7.086;2022-10-20T09:33:28;13.93;79.99
68801;SHT31;55784;50.734;7.086;2022-10-20T09:36:02;14.05;79.96
68801;SHT31;55784;50.734;7.086;2022-10-20T09:38:28;14.17;80.48
68801;SHT31;55784;50.734;7.086;2022-10-20T09:41:05;14.29;80.70
68801;SHT31;55784;50.734;7.086;2022-10-20T09:43:32;14.36;79.69
68801;SHT31;55784;50.734;7.086;2022-10-20T09:46:03;14.41;79.71
68801;SHT31;55784;50.734;7.086;2022-10-20T09:48:54;14.45;79.03
68801;SHT31;55784;50.734;7.086;2022-10-20T09:51:23;14.51;78.90
68801;SHT31;55784;50.734;7.086;2022-10-20T09:54:01;14.47;80.01
68801;SHT31;55784;50.734;7.086;2022-10-20T09:56:31;14.44;81.05
68801;SHT31;55784;50.734;7.086;2022-10-20T09:59:00;14.43;82.08
68801;SHT31;55784;50.734;7.086;2022-10-20T10:01:26;14.45;82.69
68801;SHT31;55784;50.734;7.086;2022-10-20T10:03:53;14.54;82.63
68801;SHT31;55784;50.734;7.086;2022-10-20T10:11:55;14.60;82.46
68801;SHT31;55784;50.734;7.086;2022-10-20T10:14:22;14.60;81.99
68801;SHT31;55784;50.734;7.086;2022-10-20T10:16:47;14.59;81.86
68801;SHT31;55784;50.734;7.086;2022-10-20T10:19:18;14.63;82.19
68801;SHT31;55784;50.734;7.086;2022-10-20T10:21:53;14.57;82.29
68801;SHT31;55784;50.734;7.086;2022-10-20T10:24:39;14.51;82.94
68801;SHT31;55784;50.734;7.086;2022-10-20T10:27:18;14.45;82.46
68801;SHT31;55784;50.734;7.086;2022-10-20T10:29:44;14.54;82.53
68801;SHT31;55784;50.734;7.086;2022-10-20T10:32:15;14.57;82.29
68801;SHT31;55784;50.734;7.086;2022-10-20T10:34:59;14.61;82.55
68801;SHT31;55784;50.734;7.086;2022-10-20T10:37:26;14.63;82.80
68801;SHT31;55784;50.734;7.086;2022-10-20T10:39:52;14.64;82.87
68801;SHT31;55784;50.734;7.086;2022-10-20T10:42:36;14.64;83.34
68801;SHT31;55784;50.734;7.086;2022-10-20T10:45:12;14.61;83.20
68801;SHT31;55784;50.734;7.086;2022-10-20T10:48:14;14.57;83.48
68801;SHT31;55784;50.734;7.086;2022-10-20T10:51:05;14.61;83.40
68801;SHT31;55784;50.734;7.086;2022-10-20T10:56:18;14.54;83.41
68801;SHT31;55784;50.734;7.086;2022-10-20T10:59:00;14.59;83.99
68801;SHT31;55784;50.734;7.086;2022-10-20T11:10:02;14.70;84.40
68801;SHT31;55784;50.734;7.086;2022-10-20T11:15:27;14.68;84.03
68801;SHT31;55784;50.734;7.086;2022-10-20T11:23:59;14.82;84.35
68801;SHT31;55784;50.734;7.086;2022-10-20T11:26:33;14.84;84.71
68801;SHT31;55784;50.734;7.086;2022-10-20T11:29:02;14.81;85.00
68801;SHT31;55784;50.734;7.086;2022-10-20T11:31:31;14.87;85.07
68801;SHT31;55784;50.734;7.086;2022-10-20T11:34:22;14.81;85.04
68801;SHT31;55784;50.734;7.086;2022-10-20T11:36:59;14.84;85.47
68801;SHT31;55784;50.734;7.086;2022-10-20T11:51:40;14.67;86.56
68801;SHT31;55784;50.734;7.086;2022-10-20T11:53:42;14.67;87.03
68801;SHT31;55784;50.734;7.086;2022-10-20T11:56:23;14.67;87.73
68801;SHT31;55784;50.734;7.086;2022-10-20T12:13:59;14.57;88.27
68801;SHT31;55784;50.734;7.086;2022-10-20T12:19:31;14.54;88.74
68801;SHT31;55784;50.734;7.086;2022-10-20T12:34:52;14.43;89.66
68801;SHT31;55784;50.734;7.086;2022-10-20T12:37:19;14.60;89.43
68801;SHT31;55784;50.734;7.086;2022-10-20T12:39:50;14.64;88.93
68801;SHT31;55784;50.734;7.086;2022-10-20T12:42:28;14.77;88.94
68801;SHT31;55784;50.734;7.086;2022-10-20T12:44:56;14.92;88.40
68801;SHT31;55784;50.734;7.086;2022-10-20T12:47:28;14.92;88.63
68801;SHT31;55784;50.734;7.086;2022-10-20T12:49:58;14.95;88.86
68801;SHT31;55784;50.734;7.086;2022-10-20T12:52:30;15.05;88.26
68801;SHT31;55784;50.734;7.086;2022-10-20T12:55:18;15.05;88.01
68801;SHT31;55784;50.734;7.086;2022-10-20T12:57:45;15.16;88.20
68801;SHT31;55784;50.734;7.086;2022-10-20T13:02:51;15.21;87.97
68801;SHT31;55784;50.734;7.086;2022-10-20T13:10:32;15.19;87.35
68801;SHT31;55784;50.734;7.086;2022-10-20T13:23:18;15.16;86.72
68801;SHT31;55784;50.734;7.086;2022-10-20T13:25:51;15.14;87.01
68801;SHT31;55784;50.734;7.086;2022-10-20T13:28:20;15.09;86.96
68801;SHT31;55784;50.734;7.086;2022-10-20T13:31:25;15.08;87.14
68801;SHT31;55784;50.734;7.086;2022-10-20T13:39:21;15.05;87.64
68801;SHT31;55784;50.734;7.086;2022-10-20T13:50:35;15.19;86.82
68801;SHT31;55784;50.734;7.086;2022-10-20T13:53:11;15.18;87.16
68801;SHT31;55784;50.734;7.086;2022-10-20T13:55:58;15.21;87.29
68801;SHT31;55784;50.734;7.086;2022-10-20T13:58:26;15.24;87.12
68801;SHT31;55784;50.734;7.086;2022-10-20T14:01:01;15.29;86.96
68801;SHT31;55784;50.734;7.086;2022-10-20T14:03:28;15.36;86.48
68801;SHT31;55784;50.734;7.086;2022-10-20T14:05:54;15.32;86.53
68801;SHT31;55784;50.734;7.086;2022-10-20T14:08:20;15.35;86.28
68801;SHT31;55784;50.734;7.086;2022-10-20T14:10:55;15.32;86.16
68801;SHT31;55784;50.734;7.086;2022-10-20T14:13:29;15.36;86.19
68801;SHT31;55784;50.734;7.086;2022-10-20T14:15:57;15.40;85.81
68801;SHT31;55784;50.734;7.086;2022-10-20T14:18:31;15.42;85.97
68801;SHT31;55784;50.734;7.086;2022-10-20T14:21:02;15.40;86.12
68801;SHT31;55784;50.734;7.086;2022-10-20T14:23:32;15.38;86.22
68801;SHT31;55784;50.734;7.086;2022-10-20T14:26:00;15.33;86.44
68801;SHT31;55784;50.734;7.086;2022-10-20T14:28:27;15.28;86.10
68801;SHT31;55784;50.734;7.086;2022-10-20T14:30:53;15.29;86.32
68801;SHT31;55784;50.734;7.086;2022-10-20T14:33:19;15.24;86.45
68801;SHT31;55784;50.734;7.086;2022-10-20T14:35:54;15.21;86.50
68801;SHT31;55784;50.734;7.086;2022-10-20T14:38:35;15.32;86.18
68801;SHT31;55784;50.734;7.086;2022-10-20T14:41:05;15.28;85.90
68801;SHT31;55784;50.734;7.086;2022-10-20T14:43:43;15.29;86.34
68801;SHT31;55784;50.734;7.086;2022-10-20T14:46:11;15.31;86.52
68801;SHT31;55784;50.734;7.086;2022-10-20T14:48:43;15.19;86.69
68801;SHT31;55784;50.734;7.086;2022-10-20T14:56:48;15.09;86.68
68801;SHT31;55784;50.734;7.086;2022-10-20T14:59:18;15.02;86.86
68801;SHT31;55784;50.734;7.086;2022-10-20T15:02:10;14.96;87.72
68801;SHT31;55784;50.734;7.086;2022-10-20T15:04:41;14.98;87.66
68801;SHT31;55784;50.734;7.086;2022-10-20T15:07:32;14.95;87.43
68801;SHT31;55784;50.734;7.086;2022-10-20T15:10:05;14.91;87.93
68801;SHT31;55784;50.734;7.086;2022-10-20T15:17:46;15.11;87.17
68801;SHT31;55784;50.734;7.086;2022-10-20T15:20:32;15.11;87.09
68801;SHT31;55784;50.734;7.086;2022-10-20T15:23:09;15.09;87.19
68801;SHT31;55784;50.734;7.086;2022-10-20T15:28:42;15.05;87.09
68801;SHT31;55784;50.734;7.086;2022-10-20T15:31:19;15.05;87.18
68801;SHT31;55784;50.734;7.086;2022-10-20T15:33:46;15.04;87.84
68801;SHT31;55784;50.734;7.086;2022-10-20T15:36:13;15.02;87.80
68801;SHT31;55784;50.734;7.086;2022-10-20T15:38:41;15.05;87.94
68801;SHT31;55784;50.734;7.086;2022-10-20T15:41:10;14.96;88.05
68801;SHT31;55784;50.734;7.086;2022-10-20T15:43:36;14.95;88.27
68801;SHT31;55784;50.734;7.086;2022-10-20T15:46:02;14.92;88.37
68801;SHT31;55784;50.734;7.086;2022-10-20T15:48:27;14.88;88.52
68801;SHT31;55784;50.734;7.086;2022-10-20T15:50:53;14.80;88.44
68801;SHT31;55784;50.734;7.086;2022-10-20T15:53:18;14.75;89.27
68801;SHT31;55784;50.734;7.086;2022-10-20T15:55:44;14.71;89.29
68801;SHT31;55784;50.734;7.086;2022-10-20T15:58:09;14.60;89.61
68801;SHT31;55784;50.734;7.086;2022-10-20T16:00:35;14.56;90.13
68801;SHT31;55784;50.734;7.086;2022-10-20T16:03:00;14.56;90.11
68801;SHT31;55784;50.734;7.086;2022-10-20T16:05:26;14.45;90.60
68801;SHT31;55784;50.734;7.086;2022-10-20T16:07:53;14.45;90.55
68801;SHT31;55784;50.734;7.086;2022-10-20T16:10:20;14.40;90.91
68801;SHT31;55784;50.734;7.086;2022-10-20T16:12:46;14.40;90.69
68801;SHT31;55784;50.734;7.086;2022-10-20T16:15:11;14.36;90.96
68801;SHT31;55784;50.734;7.086;2022-10-20T16:17:36;14.27;91.06
68801;SHT31;55784;50.734;7.086;2022-10-20T16:20:03;14.29;91.27
68801;SHT31;55784;50.734;7.086;2022-10-20T16:22:29;14.23;91.67
68801;SHT31;55784;50.734;7.086;2022-10-20T16:24:54;14.23;91.45
68801;SHT31;55784;50.734;7.086;2022-10-20T16:27:21;14.16;91.83
68801;SHT31;55784;50.734;7.086;2022-10-20T16:29:48;14.09;91.99
68801;SHT31;55784;50.734;7.086;2022-10-20T16:32:13;14.10;92.50
68801;SHT31;55784;50.734;7.086;2022-10-20T16:34:39;14.06;92.61
68801;SHT31;55784;50.734;7.086;2022-10-20T16:37:04;14.06;92.51
68801;SHT31;55784;50.734;7.086;2022-10-20T16:39:29;13.99;92.77
68801;SHT31;55784;50.734;7.086;2022-10-20T16:41:55;13.98;93.03
68801;SHT31;55784;50.734;7.086;2022-10-20T16:44:20;14.03;93.04
68801;SHT31;55784;50.734;7.086;2022-10-20T16:46:45;13.96;93.11
68801;SHT31;55784;50.734;7.086;2022-10-20T16:49:11;13.99;93.22
68801;SHT31;55784;50.734;7.086;2022-10-20T16:51:36;13.99;93.16
68801;SHT31;55784;50.734;7.086;2022-10-20T16:54:01;13.96;93.39
68801;SHT31;55784;50.734;7.086;2022-10-20T16:56:28;13.95;93.47
68801;SHT31;55784;50.734;7.086;2022-10-20T16:58:53;13.92;93.65
68801;SHT31;55784;50.734;7.086;2022-10-20T17:01:20;13.87;93.73
68801;SHT31;55784;50.734;7.086;2022-10-20T17:03:48;13.90;94.00
68801;SHT31;55784;50.734;7.086;2022-10-20T17:06:15;13.90;93.87
68801;SHT31;55784;50.734;7.086;2022-10-20T17:08:41;13.85;94.02
68801;SHT31;55784;50.734;7.086;2022-10-20T17:11:08;13.87;93.98
68801;SHT31;55784;50.734;7.086;2022-10-20T17:13:35;13.90;93.95
68801;SHT31;55784;50.734;7.086;2022-10-20T17:16:10;13.90;93.95
68801;SHT31;55784;50.734;7.086;2022-10-20T17:18:35;13.89;94.04
68801;SHT31;55784;50.734;7.086;2022-10-20T17:21:01;13.86;94.15
68801;SHT31;55784;50.734;7.086;2022-10-20T17:23:30;13.87;94.29
68801;SHT31;55784;50.734;7.086;2022-10-20T17:25:57;13.87;94.25
68801;SHT31;55784;50.734;7.086;2022-10-20T17:28:25;13.87;94.23
68801;SHT31;55784;50.734;7.086;2022-10-20T17:30:50;13.87;94.46
68801;SHT31;55784;50.734;7.086;2022-10-20T17:33:17;13.83;94.56
68801;SHT31;55784;50.734;7.086;2022-10-20T17:35:46;13.87;94.61
68801;SHT31;55784;50.734;7.086;2022-10-20T17:38:12;13.87;94.59
68801;SHT31;55784;50.734;7.086;2022-10-20T17:40:37;13.85;94.72
68801;SHT31;55784;50.734;7.086;2022-10-20T17:43:03;13.87;94.68
68801;SHT31;55784;50.734;7.086;2022-10-20T17:45:29;13.87;94.65
68801;SHT31;55784;50.734;7.086;2022-10-20T17:47:54;13.86;94.78
68801;SHT31;55784;50.734;7.086;2022-10-20T17:50:22;13.85;94.89
68801;SHT31;55784;50.734;7.086;2022-10-20T17:52:48;13.96;94.80
68801;SHT31;55784;50.734;7.086;2022-10-20T17:55:13;13.98;94.70
68801;SHT31;55784;50.734;7.086;2022-10-20T17:57:38;13.98;94.64
68801;SHT31;55784;50.734;7.086;2022-10-20T18:00:04;14.06;94.56
68801;SHT31;55784;50.734;7.086;2022-10-20T18:02:30;14.05;94.51
68801;SHT31;55784;50.734;7.086;2022-10-20T18:04:55;14.09;94.50
68801;SHT31;55784;50.734;7.086;2022-10-20T18:07:20;14.17;94.23
68801;SHT31;55784;50.734;7.086;2022-10-20T18:09:46;14.19;94.10
68801;SHT31;55784;50.734;7.086;2022-10-20T18:12:11;14.19;94.06
68801;SHT31;55784;50.734;7.086;2022-10-20T18:14:38;14.26;93.78
68801;SHT31;55784;50.734;7.086;2022-10-20T18:17:03;14.24;93.82
68801;SHT31;55784;50.734;7.086;2022-10-20T18:19:29;14.20;93.94
68801;SHT31;55784;50.734;7.086;2022-10-20T18:21:54;14.23;93.93
68801;SHT31;55784;50.734;7.086;2022-10-20T18:24:20;14.20;93.93
68801;SHT31;55784;50.734;7.086;2022-10-20T18:26:45;14.21;94.06
68801;SHT31;55784;50.734;7.086;2022-10-20T18:29:13;14.23;94.04
68801;SHT31;55784;50.734;7.086;2022-10-20T18:31:40;14.20;94.19
68801;SHT31;55784;50.734;7.086;2022-10-20T18:34:09;14.21;94.06
68801;SHT31;55784;50.734;7.086;2022-10-20T18:36:36;14.19;94.11
68801;SHT31;55784;50.734;7.086;2022-10-20T18:39:02;14.21;94.16
68801;SHT31;55784;50.734;7.086;2022-10-20T18:41:30;14.17;94.31
68801;SHT31;55784;50.734;7.086;2022-10-20T18:43:59;14.10;94.49
68801;SHT31;55784;50.734;7.086;2022-10-20T18:46:25;14.13;94.64
68801;SHT31;55784;50.734;7.086;2022-10-20T18:48:51;14.09;94.67
68801;SHT31;55784;50.734;7.086;2022-10-20T18:51:16;14.12;94.88
68801;SHT31;55784;50.734;7.086;2022-10-20T18:53:43;14.09;94.88
68801;SHT31;55784;50.734;7.086;2022-10-20T18:58:38;14.17;94.70
68801;SHT31;55784;50.734;7.086;2022-10-20T19:01:06;14.12;94.59
68801;SHT31;55784;50.734;7.086;2022-10-20T19:03:33;14.10;94.75
68801;SHT31;55784;50.734;7.086;2022-10-20T19:06:13;14.13;94.75
68801;SHT31;55784;50.734;7.086;2022-10-20T19:08:39;14.13;94.71
68801;SHT31;55784;50.734;7.086;2022-10-20T19:11:07;14.19;94.46
68801;SHT31;55784;50.734;7.086;2022-10-20T19:13:34;14.19;94.47
68801;SHT31;55784;50.734;7.086;2022-10-20T19:16:04;14.20;94.49
68801;SHT31;55784;50.734;7.086;2022-10-20T19:18:30;14.23;94.48
68801;SHT31;55784;50.734;7.086;2022-10-20T19:20:57;14.23;94.48
68801;SHT31;55784;50.734;7.086;2022-10-20T19:23:24;14.29;94.16
68801;SHT31;55784;50.734;7.086;2022-10-20T19:26:07;14.29;94.11
68801;SHT31;55784;50.734;7.086;2022-10-20T19:28:35;14.27;94.04
68801;SHT31;55784;50.734;7.086;2022-10-20T19:31:00;14.23;94.26
68801;SHT31;55784;50.734;7.086;2022-10-20T19:33:27;14.20;94.42
68801;SHT31;55784;50.734;7.086;2022-10-20T19:35:53;14.19;94.47
68801;SHT31;55784;50.734;7.086;2022-10-20T19:38:19;14.17;94.56
68801;SHT31;55784;50.734;7.086;2022-10-20T19:40:57;14.12;94.79
68801;SHT31;55784;50.734;7.086;2022-10-20T19:43:51;14.13;94.69
68801;SHT31;55784;50.734;7.086;2022-10-20T19:46:20;14.12;94.88
68801;SHT31;55784;50.734;7.086;2022-10-20T19:48:47;14.10;94.80
68801;SHT31;55784;50.734;7.086;2022-10-20T19:51:34;14.06;95.04
68801;SHT31;55784;50.734;7.086;2022-10-20T19:54:07;13.99;95.35
68801;SHT31;55784;50.734;7.086;2022-10-20T19:56:44;14.05;95.38
68801;SHT31;55784;50.734;7.086;2022-10-20T20:02:12;14.05;95.50
68801;SHT31;55784;50.734;7.086;2022-10-20T20:04:40;14.08;95.35
68801;SHT31;55784;50.734;7.086;2022-10-20T20:07:06;14.10;95.34
68801;SHT31;55784;50.734;7.086;2022-10-20T20:09:32;14.16;95.30
68801;SHT31;55784;50.734;7.086;2022-10-20T20:11:57;14.10;95.35